Kenilworth, New Jersey
Current Conditions -  °F | °C
As of 7:35 PM on Monday 24 Nov 2014 (Local Time) from KLDJ Reporting Station
Clear Clear  
Wind Chill: 70°   Ceiling: Unl
Heat Index: 70°   Visibility: 10mi
Dew Point: 58°   Wind: 6mph
Humidity: 65%   Direction: 220°SW
Pressure: 29.69"   Gusts: NA
Location:  40.68°N, 74.29°W
Report Text: KLDJ 250035Z AUTO 22005KT 10SM CLR 21/15 A2969 RMK AO2 T02120145
Loading
Personal Weather Stations






























Interactive Weather Map New forecast layout! Learn more

10-Day Weather Forecast

Advertisements
Track Severe Weather on mobile